createdAt,value
2023-05-25T00:00:21.536Z,1.7
2023-05-25T00:01:30.194Z,1.2
2023-05-25T00:02:39.980Z,1.2
2023-05-25T00:03:48.519Z,3
2023-05-25T00:04:56.164Z,1.9
2023-05-25T00:06:04.850Z,1.2
2023-05-25T00:07:13.469Z,1.5
2023-05-25T00:08:23.119Z,1.5
2023-05-25T00:09:31.774Z,1.2
2023-05-25T00:10:40.433Z,1.2
2023-05-25T00:11:50.091Z,3.2
2023-05-25T00:12:59.748Z,1.2
2023-05-25T00:14:08.406Z,1.1
2023-05-25T00:15:17.039Z,1.9
2023-05-25T00:16:24.705Z,1.2
2023-05-25T00:17:34.352Z,1.2
2023-05-25T00:18:42.988Z,0.7
2023-05-25T00:19:50.673Z,1.9
2023-05-25T00:21:00.289Z,1.5
2023-05-25T00:22:08.972Z,2.6
2023-05-25T00:23:18.613Z,2.2
2023-05-25T00:24:27.252Z,2
2023-05-25T00:25:36.899Z,1.1
2023-05-25T00:26:46.568Z,0.9
2023-05-25T00:27:55.228Z,4.5
2023-05-25T00:29:02.866Z,2
2023-05-25T00:30:12.531Z,1.3
2023-05-25T00:31:21.189Z,2.1
2023-05-25T00:32:29.847Z,1.3
2023-05-25T00:33:38.483Z,1.6
2023-05-25T00:34:46.121Z,3.4
2023-05-25T00:35:55.767Z,0.8
2023-05-25T00:37:05.476Z,1.1
2023-05-25T00:38:14.113Z,1.6
2023-05-25T00:39:23.738Z,2.1
2023-05-25T00:40:32.372Z,0.9
2023-05-25T00:41:42.018Z,0.7
2023-05-25T00:42:50.700Z,1.3
2023-05-25T00:43:59.345Z,2.2
2023-05-25T00:45:09.022Z,1.3
2023-05-25T00:46:17.726Z,1.3
2023-05-25T00:47:25.360Z,1.1
2023-05-25T00:48:34.956Z,1
2023-05-25T00:49:43.662Z,1.2
2023-05-25T00:50:52.299Z,1.6
2023-05-25T00:52:00.929Z,2.4
2023-05-25T00:53:08.628Z,1
2023-05-25T00:54:18.313Z,0.6
2023-05-25T00:55:27.906Z,0.8
2023-05-25T00:56:36.632Z,1.6
2023-05-25T00:57:46.279Z,1.7
2023-05-25T00:58:55.916Z,1.7
2023-05-25T01:00:04.589Z,1.2
2023-05-25T01:01:13.202Z,1.1
2023-05-25T01:02:21.918Z,0.8
2023-05-25T01:03:31.612Z,1.2
2023-05-25T01:04:39.194Z,1.5
2023-05-25T01:05:48.851Z,1.1
2023-05-25T01:06:57.498Z,1.5
2023-05-25T01:08:05.182Z,0.8
2023-05-25T01:09:14.847Z,3.7
2023-05-25T01:10:24.523Z,3.9
2023-05-25T01:11:33.135Z,2.5
2023-05-25T01:12:41.775Z,5
2023-05-25T01:13:51.501Z,1.4
2023-05-25T01:15:01.176Z,0.8
2023-05-25T01:16:09.832Z,1.7
2023-05-25T01:17:17.444Z,3.1
2023-05-25T01:18:27.094Z,0.6
2023-05-25T01:20:10.285Z,1.1
2023-05-25T01:21:11.392Z,1.5
2023-05-25T01:22:21.066Z,1.2
2023-05-25T01:23:30.823Z,3
2023-05-25T01:24:40.451Z,1.1
2023-05-25T01:25:49.197Z,1.1
2023-05-25T01:26:56.814Z,0.9
2023-05-25T01:28:06.537Z,2.1
2023-05-25T01:29:16.217Z,1.8
2023-05-25T01:30:23.879Z,1.3
2023-05-25T01:31:33.585Z,1.1
2023-05-25T01:32:43.222Z,2.2
2023-05-25T01:33:51.880Z,0.7
2023-05-25T01:35:01.572Z,2.7
2023-05-25T01:36:10.226Z,0.8
2023-05-25T01:37:19.905Z,1.5
2023-05-25T01:38:29.575Z,1.9
2023-05-25T01:39:37.292Z,1.2
2023-05-25T01:40:46.949Z,4
2023-05-25T01:41:55.633Z,1.7
2023-05-25T01:43:04.295Z,1
2023-05-25T01:44:13.985Z,1.7
2023-05-25T01:45:23.687Z,1.5
2023-05-25T01:46:33.407Z,3.4
2023-05-25T01:47:43.025Z,1.2
2023-05-25T01:48:50.690Z,2.1
2023-05-25T01:50:00.351Z,1.8
2023-05-25T01:51:08.986Z,1.6
2023-05-25T01:52:17.774Z,1.6
2023-05-25T01:53:26.315Z,1.9
2023-05-25T01:54:34.978Z,4
2023-05-25T01:55:44.891Z,2.3
2023-05-25T01:56:53.295Z,2.8
2023-05-25T01:58:02.027Z,1.4
2023-05-25T01:59:11.635Z,2
2023-05-25T02:00:20.275Z,1
2023-05-25T02:01:29.990Z,1.8
2023-05-25T02:02:38.605Z,1.4
2023-05-25T02:03:46.265Z,1.1
2023-05-25T02:04:55.953Z,2.3
2023-05-25T02:06:04.624Z,1.2
2023-05-25T02:07:13.290Z,2.6
2023-05-25T02:08:22.969Z,1.8
2023-05-25T02:09:31.625Z,2.9
2023-05-25T02:10:40.317Z,1.7
2023-05-25T02:11:49.979Z,1.9
2023-05-25T02:12:56.645Z,1.9
2023-05-25T02:14:05.354Z,1.7
2023-05-25T02:15:14.979Z,2.9
2023-05-25T02:16:23.690Z,2.2
2023-05-25T02:17:33.408Z,5
2023-05-25T02:18:43.040Z,2.2
2023-05-25T02:19:51.715Z,2.1
2023-05-25T02:21:01.403Z,2.2
2023-05-25T02:22:09.060Z,2.4
2023-05-25T02:23:18.767Z,2.6
2023-05-25T02:24:28.423Z,4.9
2023-05-25T02:25:37.074Z,2.9
2023-05-25T02:26:46.749Z,2.6
2023-05-25T02:27:55.398Z,2.6
2023-05-25T02:29:04.442Z,2.3
2023-05-25T02:30:14.166Z,6.2
2023-05-25T02:31:23.847Z,2.1
2023-05-25T02:32:33.808Z,1.4
2023-05-25T02:33:42.412Z,3.3
2023-05-25T02:34:50.056Z,2.2
2023-05-25T02:35:59.744Z,1.9
2023-05-25T02:37:08.424Z,3
2023-05-25T02:38:17.166Z,1.9
2023-05-25T02:39:25.853Z,4
2023-05-25T02:40:33.512Z,1.8
2023-05-25T02:41:43.153Z,2.3
2023-05-25T02:42:51.904Z,2.1
2023-05-25T02:43:59.562Z,2.4
2023-05-25T02:45:08.177Z,2.1
2023-05-25T02:46:17.976Z,2.6
2023-05-25T02:47:26.534Z,2.3
2023-05-25T02:48:35.221Z,2.1
2023-05-25T02:49:44.886Z,2.1
2023-05-25T02:50:54.541Z,2.7
2023-05-25T02:52:03.242Z,3.3
2023-05-25T02:53:10.897Z,2.6
2023-05-25T02:54:20.617Z,3.2
2023-05-25T02:55:29.280Z,3.4
2023-05-25T02:56:37.928Z,1.4
2023-05-25T02:57:46.588Z,2.9
2023-05-25T02:58:55.276Z,2.2
2023-05-25T03:00:04.933Z,2.9
2023-05-25T03:01:13.595Z,3.1
2023-05-25T03:02:23.340Z,3.7
2023-05-25T03:03:33.026Z,2.5
2023-05-25T03:04:42.607Z,4.7
2023-05-25T03:05:53.311Z,2.7
2023-05-25T03:07:02.965Z,2.5
2023-05-25T03:08:12.591Z,3
2023-05-25T03:09:23.293Z,1.9
2023-05-25T03:10:33.086Z,3.7
2023-05-25T03:11:42.769Z,2.7
2023-05-25T03:12:51.419Z,2.5
2023-05-25T03:14:00.095Z,4
2023-05-25T03:15:10.210Z,2.4
2023-05-25T03:16:18.927Z,2.9
2023-05-25T03:17:27.645Z,3.6
2023-05-25T03:18:37.195Z,1.6
2023-05-25T03:19:44.940Z,3.1
2023-05-25T03:20:54.605Z,3
2023-05-25T03:22:04.285Z,1.7
2023-05-25T03:23:11.964Z,2.4
2023-05-25T03:24:21.685Z,2.3
2023-05-25T03:25:31.345Z,2.9
2023-05-25T03:26:40.037Z,2.5
2023-05-25T03:27:48.693Z,3.5
2023-05-25T03:28:58.470Z,1.9
2023-05-25T03:30:08.236Z,1.9
2023-05-25T03:31:16.924Z,1.6
2023-05-25T03:32:25.604Z,2.7
2023-05-25T03:33:34.244Z,2.3
2023-05-25T03:34:43.891Z,2.4
2023-05-25T03:35:53.586Z,4
2023-05-25T03:37:02.239Z,2.3
2023-05-25T03:38:11.887Z,1.9
2023-05-25T03:39:21.548Z,2.7
2023-05-25T03:40:29.247Z,2
2023-05-25T03:41:37.934Z,3.5
2023-05-25T03:42:47.641Z,2
2023-05-25T03:43:57.332Z,2.3
2023-05-25T03:45:05.979Z,2.9
2023-05-25T03:46:14.650Z,3.8
2023-05-25T03:47:23.289Z,2.3
2023-05-25T03:48:32.933Z,2.6
2023-05-25T03:49:41.610Z,2.9
2023-05-25T03:50:49.277Z,3.2
2023-05-25T03:51:58.942Z,2.6
2023-05-25T03:53:08.653Z,2.8
2023-05-25T03:54:18.305Z,3
2023-05-25T03:55:26.961Z,3.1
2023-05-25T03:56:34.641Z,2.7
2023-05-25T03:57:44.339Z,3.9
2023-05-25T03:58:52.992Z,4.4
2023-05-25T04:00:00.638Z,2.6
2023-05-25T04:01:10.324Z,2.9
2023-05-25T04:02:20.007Z,4.2
2023-05-25T04:03:28.783Z,3.5
2023-05-25T04:04:37.374Z,1.8
2023-05-25T04:05:46.204Z,2.9
2023-05-25T04:06:55.666Z,2.7
2023-05-25T04:08:04.351Z,4.4
2023-05-25T04:09:11.999Z,1.4
2023-05-25T04:10:21.646Z,3.6
2023-05-25T04:11:30.312Z,2.8
2023-05-25T04:12:38.993Z,2.2
2023-05-25T04:13:47.640Z,3.2
2023-05-25T04:14:55.316Z,7
2023-05-25T04:16:05.022Z,2.7
2023-05-25T04:17:13.696Z,3.6
2023-05-25T04:18:21.388Z,2.8
2023-05-25T04:19:31.059Z,4
2023-05-25T04:20:40.830Z,3.7
2023-05-25T04:21:50.470Z,2.9
2023-05-25T04:23:00.115Z,3.3
2023-05-25T04:24:07.784Z,1.5
2023-05-25T04:25:17.401Z,2.2
2023-05-25T04:26:26.045Z,3.2
2023-05-25T04:27:33.721Z,1.7
2023-05-25T04:28:43.368Z,3.3
2023-05-25T04:29:52.031Z,3
2023-05-25T04:31:00.709Z,1.6
2023-05-25T04:32:10.373Z,2.7
2023-05-25T04:33:18.076Z,2.6
2023-05-25T04:34:27.753Z,2.7
2023-05-25T04:35:37.379Z,2.1
2023-05-25T04:36:45.065Z,2.9
2023-05-25T04:37:54.748Z,2.9
2023-05-25T04:39:03.399Z,2.7
2023-05-25T04:40:13.093Z,1.9
2023-05-25T04:41:22.770Z,4.6
2023-05-25T04:42:32.499Z,3.9
2023-05-25T04:43:49.330Z,3.4
2023-05-25T04:44:49.828Z,3
2023-05-25T04:45:58.534Z,3.1
2023-05-25T04:47:08.205Z,4.1
2023-05-25T04:48:16.866Z,3.2
2023-05-25T04:49:25.507Z,2.9
2023-05-25T04:50:33.196Z,2.7
2023-05-25T04:51:42.932Z,4.4
2023-05-25T04:52:51.587Z,2.2
2023-05-25T04:54:00.811Z,3.7
2023-05-25T04:55:09.868Z,1.7
2023-05-25T04:56:18.517Z,3.2
2023-05-25T04:57:28.210Z,3.1
2023-05-25T04:58:37.885Z,4.3
2023-05-25T04:59:45.527Z,1.9
2023-05-25T05:00:54.225Z,3
2023-05-25T05:02:01.848Z,1.7
2023-05-25T05:03:11.605Z,1.7
2023-05-25T05:04:21.156Z,1.8
2023-05-25T05:05:29.838Z,1
2023-05-25T05:06:39.527Z,1.1
2023-05-25T05:07:48.180Z,3.9
2023-05-25T05:08:56.847Z,2.3
2023-05-25T05:10:05.539Z,1.3
2023-05-25T05:11:14.237Z,2.9
2023-05-25T05:12:23.884Z,1.9
2023-05-25T05:13:32.549Z,2.5
2023-05-25T05:14:42.239Z,4.5
2023-05-25T05:15:50.885Z,3
2023-05-25T05:17:00.661Z,2.9
2023-05-25T05:18:10.358Z,2.5
2023-05-25T05:19:19.971Z,1.7
2023-05-25T05:20:28.653Z,2.2
2023-05-25T05:21:37.314Z,4
2023-05-25T05:22:46.004Z,5.9
2023-05-25T05:23:53.650Z,3.6
2023-05-25T05:25:03.306Z,2.5
2023-05-25T05:26:11.985Z,2.2
2023-05-25T05:27:20.604Z,2.5
2023-05-25T05:28:29.287Z,2
2023-05-25T05:29:38.964Z,2
2023-05-25T05:30:48.687Z,2.4
2023-05-25T05:31:57.381Z,3.1
2023-05-25T05:33:05.090Z,4
2023-05-25T05:34:13.716Z,1.6
2023-05-25T05:35:22.362Z,3.7
2023-05-25T05:36:38.913Z,2.1
2023-05-25T05:37:42.719Z,2.3
2023-05-25T05:38:51.399Z,1.9
2023-05-25T05:40:01.069Z,2.6
2023-05-25T05:41:09.743Z,2.5
2023-05-25T05:42:17.446Z,3.2
2023-05-25T05:43:27.110Z,4.7
2023-05-25T05:44:35.746Z,4
2023-05-25T05:45:45.653Z,2.9
2023-05-25T05:46:54.097Z,3.1
2023-05-25T05:48:01.813Z,2.5
2023-05-25T05:49:11.446Z,2.3
2023-05-25T05:50:21.098Z,1.9
2023-05-25T05:51:29.777Z,2
2023-05-25T05:52:39.461Z,2
2023-05-25T05:53:48.179Z,2
2023-05-25T05:54:55.833Z,2.2
2023-05-25T05:56:04.512Z,3
2023-05-25T05:57:12.180Z,2.2
2023-05-25T05:58:21.963Z,2.1
2023-05-25T05:59:31.611Z,1.6
2023-05-25T06:00:39.258Z,1.8
2023-05-25T06:01:48.937Z,3.3
2023-05-25T06:02:58.766Z,1.9
2023-05-25T06:04:07.276Z,2.1
2023-05-25T06:05:17.068Z,1.7
2023-05-25T06:06:26.728Z,1.7
2023-05-25T06:07:35.380Z,6.2
2023-05-25T06:08:44.048Z,2.9
2023-05-25T06:09:51.710Z,2.1
2023-05-25T06:11:01.416Z,2.9
2023-05-25T06:12:10.085Z,2.2
2023-05-25T06:13:19.763Z,2
2023-05-25T06:14:28.916Z,1.8
2023-05-25T06:15:36.118Z,2.8
2023-05-25T06:16:45.856Z,3.4
2023-05-25T06:17:54.508Z,2.1
2023-05-25T06:19:04.178Z,2.1
2023-05-25T06:20:14.005Z,2.5
2023-05-25T06:21:22.548Z,2.6
2023-05-25T06:22:31.201Z,2.3
2023-05-25T06:23:39.857Z,3.1
2023-05-25T06:24:48.554Z,1.5
2023-05-25T06:25:58.245Z,1.6
2023-05-25T06:27:06.910Z,1.6
2023-05-25T06:28:16.598Z,2.6
2023-05-25T06:29:26.297Z,2
2023-05-25T06:30:35.016Z,3.1
2023-05-25T06:31:43.677Z,3.7
2023-05-25T06:32:52.415Z,1.9
2023-05-25T06:34:01.036Z,1.7
2023-05-25T06:35:10.745Z,2.8
2023-05-25T06:36:19.418Z,1.8
2023-05-25T06:37:27.072Z,2.1
2023-05-25T06:38:36.754Z,3.1
2023-05-25T06:39:46.428Z,1.9
2023-05-25T06:40:55.167Z,2
2023-05-25T06:42:03.823Z,1.9
2023-05-25T06:43:11.492Z,3.1
2023-05-25T06:44:21.189Z,2.1
2023-05-25T06:45:29.802Z,3.6
2023-05-25T06:46:38.589Z,1.4
2023-05-25T06:47:48.241Z,3.8
2023-05-25T06:48:56.848Z,2.4
2023-05-25T06:50:05.598Z,3.4
2023-05-25T06:51:15.255Z,2.7
2023-05-25T06:52:23.941Z,3.3
2023-05-25T06:53:33.664Z,1.9
2023-05-25T06:54:44.360Z,3.4
2023-05-25T06:55:53.030Z,2.6
2023-05-25T06:57:01.760Z,2.6
2023-05-25T06:58:10.448Z,1.2
2023-05-25T06:59:20.100Z,2.1
2023-05-25T07:00:28.811Z,4.2
2023-05-25T07:01:38.450Z,1.8
2023-05-25T07:02:48.298Z,3.8
2023-05-25T07:03:56.848Z,2.3
2023-05-25T07:05:06.558Z,2.6
2023-05-25T07:06:15.200Z,2.7
2023-05-25T07:07:24.922Z,5.8
2023-05-25T07:08:34.597Z,1.6
2023-05-25T07:09:44.252Z,3.2
2023-05-25T07:10:52.962Z,2.2
2023-05-25T07:12:01.632Z,2.8
2023-05-25T07:13:10.290Z,2.7
2023-05-25T07:14:19.986Z,2.8
2023-05-25T07:15:29.669Z,1.3
2023-05-25T07:16:37.377Z,4.3
2023-05-25T07:17:47.107Z,2.9
2023-05-25T07:18:56.456Z,1.9
2023-05-25T07:20:06.517Z,2.2
2023-05-25T07:21:15.054Z,2
2023-05-25T07:22:23.728Z,1.7
2023-05-25T07:23:33.387Z,3.5
2023-05-25T07:24:42.051Z,2.4
2023-05-25T07:25:50.757Z,2.9
2023-05-25T07:26:59.391Z,2.1
2023-05-25T07:28:09.084Z,2.8
2023-05-25T07:29:17.846Z,1.9
2023-05-25T07:30:26.537Z,1.1
2023-05-25T07:31:34.233Z,2.3
2023-05-25T07:32:43.902Z,1.4
2023-05-25T07:33:53.639Z,2
2023-05-25T07:35:01.373Z,1.8
2023-05-25T07:36:11.055Z,2.9
2023-05-25T07:37:19.727Z,1.8
2023-05-25T07:38:28.447Z,3
2023-05-25T07:39:38.128Z,1.6
2023-05-25T07:40:46.820Z,2.4
2023-05-25T07:41:56.537Z,3.6
2023-05-25T07:43:06.846Z,2
2023-05-25T07:44:14.915Z,1.8
2023-05-25T07:45:24.609Z,2.9
2023-05-25T07:46:34.284Z,1.3
2023-05-25T07:47:42.952Z,2.9
2023-05-25T07:48:52.659Z,2.2
2023-05-25T07:50:02.322Z,2.9
2023-05-25T07:51:13.033Z,2
2023-05-25T07:52:22.708Z,2.1
2023-05-25T07:53:30.358Z,3
2023-05-25T07:54:40.308Z,2.3
2023-05-25T07:55:49.693Z,3.3
2023-05-25T07:56:58.366Z,2.1
2023-05-25T07:58:08.068Z,3.3
2023-05-25T07:59:15.733Z,2.7
2023-05-25T08:00:25.410Z,2.1
2023-05-25T08:01:35.077Z,2.1
2023-05-25T08:02:43.865Z,1.4
2023-05-25T08:03:53.517Z,2.8
2023-05-25T08:05:03.306Z,1.3
2023-05-25T08:06:12.940Z,1.3
2023-05-25T08:07:22.632Z,3.6
2023-05-25T08:08:31.286Z,1.7
2023-05-25T08:09:40.959Z,2.4
2023-05-25T08:10:49.690Z,1.6
2023-05-25T08:12:13.322Z,1.9
2023-05-25T08:13:09.969Z,4.4
2023-05-25T08:14:18.685Z,1.2
2023-05-25T08:15:27.354Z,1.8
2023-05-25T08:16:36.128Z,2.4
2023-05-25T08:17:45.124Z,3.7
2023-05-25T08:18:54.492Z,2.1
2023-05-25T08:20:03.233Z,1.8
2023-05-25T08:21:10.868Z,2.2
2023-05-25T08:22:19.527Z,2
2023-05-25T08:23:29.292Z,1.5
2023-05-25T08:24:38.932Z,2.3
2023-05-25T08:25:47.679Z,1.3
2023-05-25T08:26:57.262Z,1.5
2023-05-25T08:28:06.940Z,3
2023-05-25T08:29:15.640Z,2.6
2023-05-25T08:30:23.285Z,2
2023-05-25T08:31:33.068Z,1.4
2023-05-25T08:32:41.688Z,3
2023-05-25T08:33:50.347Z,2.6
2023-05-25T08:34:59.053Z,2.5
2023-05-25T08:36:06.735Z,1.5
2023-05-25T08:37:16.423Z,2.4
2023-05-25T08:38:26.156Z,2.4
2023-05-25T08:39:35.861Z,2.8
2023-05-25T08:40:45.575Z,1.6
2023-05-25T08:41:55.263Z,4.1
2023-05-25T08:43:04.939Z,3.2
2023-05-25T08:44:14.822Z,2.3
2023-05-25T08:45:33.994Z,2.3
2023-05-25T08:46:34.973Z,2.8
2023-05-25T08:47:44.694Z,1.2
2023-05-25T08:48:52.479Z,3.3
2023-05-25T08:50:02.026Z,2.9
2023-05-25T08:51:11.153Z,1.7
2023-05-25T08:52:21.156Z,2.6
2023-05-25T08:53:30.974Z,3.2
2023-05-25T08:54:40.685Z,2
2023-05-25T08:55:50.406Z,2.7
2023-05-25T08:56:59.076Z,1.6
2023-05-25T08:58:08.823Z,2.9
2023-05-25T08:59:17.492Z,2.5
2023-05-25T09:00:26.177Z,3.4
2023-05-25T09:01:35.854Z,1.6
2023-05-25T09:02:44.555Z,2.2
2023-05-25T09:03:53.242Z,2.7
2023-05-25T09:05:01.972Z,2.8
2023-05-25T09:06:09.768Z,1.4
2023-05-25T09:07:19.777Z,2.7
2023-05-25T09:08:29.399Z,1.9
2023-05-25T09:09:37.053Z,1.4
2023-05-25T09:10:46.824Z,1.7
2023-05-25T09:11:55.436Z,1.8
2023-05-25T09:13:19.363Z,2.8
2023-05-25T09:14:15.716Z,1.4
2023-05-25T09:15:24.374Z,2.5
2023-05-25T09:16:33.247Z,1.7
2023-05-25T09:17:41.923Z,1.9
2023-05-25T09:18:51.573Z,1.9
2023-05-25T09:20:01.243Z,2.3
2023-05-25T09:21:09.938Z,3.4
2023-05-25T09:22:19.598Z,3
2023-05-25T09:23:28.273Z,2
2023-05-25T09:24:37.942Z,2.5
2023-05-25T09:25:47.601Z,2.2
2023-05-25T09:26:56.305Z,2.4
2023-05-25T09:28:24.580Z,1.9
2023-05-25T09:29:16.654Z,1.7
2023-05-25T09:30:25.305Z,3.2
2023-05-25T09:31:35.013Z,2.7
2023-05-25T09:32:43.635Z,1.4
2023-05-25T09:33:52.322Z,3
2023-05-25T09:35:01.970Z,2.8
2023-05-25T09:36:10.661Z,2.5
2023-05-25T09:37:20.390Z,1.3
2023-05-25T09:38:30.130Z,2.6
2023-05-25T09:39:38.661Z,1.7
2023-05-25T09:40:48.412Z,2.3
2023-05-25T09:41:57.950Z,1.7
2023-05-25T09:43:06.575Z,2.8
2023-05-25T09:44:16.268Z,2.5
2023-05-25T09:45:25.014Z,1
2023-05-25T09:46:33.745Z,0.8
2023-05-25T09:47:43.385Z,1.6
2023-05-25T09:48:53.019Z,1.8
2023-05-25T09:50:01.655Z,2.8
2023-05-25T09:51:11.403Z,1.7
2023-05-25T09:52:19.028Z,2.1
2023-05-25T09:53:28.690Z,1.4
2023-05-25T09:54:37.344Z,1.7
2023-05-25T09:55:53.577Z,2.3
2023-05-25T09:56:57.686Z,2.6
2023-05-25T09:58:06.351Z,2.3
2023-05-25T09:59:15.998Z,2.1
2023-05-25T10:00:24.704Z,2.4
2023-05-25T10:01:33.467Z,2.3
2023-05-25T10:02:43.073Z,2.9
2023-05-25T10:04:03.388Z,3.5
2023-05-25T10:05:01.890Z,2.1
2023-05-25T10:06:11.544Z,3.2
2023-05-25T10:07:21.189Z,2.5
2023-05-25T10:08:29.867Z,1.2
2023-05-25T10:09:38.507Z,2.6
2023-05-25T10:10:47.388Z,2.9
2023-05-25T10:11:56.915Z,4
2023-05-25T10:13:05.651Z,2.7
2023-05-25T10:14:14.359Z,1.2
2023-05-25T10:15:24.017Z,2.4
2023-05-25T10:16:33.759Z,2.1
2023-05-25T10:17:43.393Z,1.8
2023-05-25T10:18:53.029Z,1.9
2023-05-25T10:20:02.789Z,0.6
2023-05-25T10:21:12.431Z,2.3
2023-05-25T10:22:22.144Z,2.2
2023-05-25T10:23:29.773Z,0.7
2023-05-25T10:24:39.456Z,2.1
2023-05-25T10:25:48.149Z,1.2
2023-05-25T10:26:57.806Z,1.7
2023-05-25T10:28:07.464Z,1.8
2023-05-25T10:29:17.168Z,3.2
2023-05-25T10:30:26.830Z,3.2
2023-05-25T10:31:35.527Z,3
2023-05-25T10:32:43.189Z,3.5
2023-05-25T10:33:52.830Z,2.1
2023-05-25T10:35:02.494Z,3.2
2023-05-25T10:36:12.218Z,2.4
2023-05-25T10:37:21.036Z,3.2
2023-05-25T10:38:28.717Z,2
2023-05-25T10:39:38.404Z,2.4
2023-05-25T10:40:47.076Z,2
2023-05-25T10:41:54.714Z,2.6
2023-05-25T10:43:04.416Z,2.1
2023-05-25T10:44:14.131Z,2.4
2023-05-25T10:45:22.916Z,2.3
2023-05-25T10:46:32.587Z,2.5
2023-05-25T10:47:40.180Z,4.8
2023-05-25T10:48:49.898Z,3.1
2023-05-25T10:49:59.578Z,2.5
2023-05-25T10:51:11.058Z,3.1
2023-05-25T10:52:18.917Z,2.4
2023-05-25T10:53:26.595Z,2.3
2023-05-25T10:54:36.264Z,3.7
2023-05-25T10:55:45.172Z,4.5
2023-05-25T10:56:53.581Z,4.1
2023-05-25T10:58:02.300Z,2.2
2023-05-25T10:59:11.070Z,3.4
2023-05-25T11:00:20.770Z,3.2
2023-05-25T11:01:29.517Z,2.3
2023-05-25T11:02:39.116Z,2.6
2023-05-25T11:03:48.903Z,3.8
2023-05-25T11:04:58.501Z,2.5
2023-05-25T11:06:08.789Z,2.8
2023-05-25T11:07:17.413Z,6.7
2023-05-25T11:08:27.104Z,2.5
2023-05-25T11:09:36.782Z,3.8
2023-05-25T11:10:46.440Z,3.9
2023-05-25T11:11:55.096Z,2.1
2023-05-25T11:13:04.774Z,3.5
2023-05-25T11:14:12.517Z,6.1
2023-05-25T11:15:21.188Z,4.4
2023-05-25T11:16:29.879Z,3.4
2023-05-25T11:17:38.643Z,3.2
2023-05-25T11:18:48.295Z,5.1
2023-05-25T11:19:57.942Z,3.2
2023-05-25T11:21:05.773Z,3.5
2023-05-25T11:22:15.460Z,3.4
2023-05-25T11:23:24.142Z,4.5
2023-05-25T11:24:34.772Z,2.8
2023-05-25T11:25:43.565Z,1.3
2023-05-25T11:26:52.298Z,1.5
2023-05-25T11:28:01.982Z,2.9
2023-05-25T11:29:10.613Z,3.1
2023-05-25T11:30:20.317Z,2.8
2023-05-25T11:31:30.201Z,3
2023-05-25T11:32:39.908Z,2.4
2023-05-25T11:33:49.508Z,3
2023-05-25T11:34:59.152Z,3.5
2023-05-25T11:36:07.939Z,4.8
2023-05-25T11:37:17.599Z,2.8
2023-05-25T11:38:26.252Z,3
2023-05-25T11:39:35.041Z,1.7
2023-05-25T11:40:44.621Z,2.4
2023-05-25T11:41:53.314Z,2.9
2023-05-25T11:43:03.092Z,3.3
2023-05-25T11:44:11.696Z,1.8
2023-05-25T11:45:19.353Z,2.5
2023-05-25T11:46:29.062Z,2.8
2023-05-25T11:47:38.227Z,2.4
2023-05-25T11:48:45.348Z,2.5
2023-05-25T11:49:54.117Z,2.8
2023-05-25T11:51:02.771Z,1.8
2023-05-25T11:52:11.449Z,2.9
2023-05-25T11:53:20.105Z,1.9
2023-05-25T11:54:27.813Z,1.5
2023-05-25T11:55:37.613Z,2.5
2023-05-25T11:56:46.354Z,3.6
2023-05-25T11:57:54.039Z,4.2
2023-05-25T11:59:03.740Z,3.5
2023-05-25T12:00:14.324Z,2
2023-05-25T12:01:23.012Z,2.6
2023-05-25T12:02:32.705Z,2.3
2023-05-25T12:03:41.465Z,1.7
2023-05-25T12:04:51.028Z,2.3
2023-05-25T12:05:59.761Z,2.5
2023-05-25T12:07:08.403Z,2.5
2023-05-25T12:08:18.322Z,24.799999
2023-05-25T12:09:27.750Z,3.9
2023-05-25T12:10:36.430Z,2.7
2023-05-25T12:11:45.088Z,3
2023-05-25T12:12:53.736Z,3
2023-05-25T12:14:03.433Z,4.2
2023-05-25T12:15:12.090Z,1.6
2023-05-25T12:16:19.802Z,3.4
2023-05-25T12:17:29.490Z,3.6
2023-05-25T12:18:39.215Z,2.9
2023-05-25T12:19:49.049Z,2.9
2023-05-25T12:20:57.729Z,3.9
2023-05-25T12:22:06.384Z,4.6
2023-05-25T12:23:16.028Z,3.2
2023-05-25T12:24:25.689Z,4.3
2023-05-25T12:25:46.387Z,2.7
2023-05-25T12:26:46.053Z,3.8
2023-05-25T12:27:55.741Z,2.1
2023-05-25T12:29:04.454Z,3
2023-05-25T12:30:12.317Z,2
2023-05-25T12:31:20.989Z,5.3
2023-05-25T12:32:30.706Z,2.9
2023-05-25T12:33:40.348Z,3.8
2023-05-25T12:34:49.061Z,3.1
2023-05-25T12:35:58.709Z,4
2023-05-25T12:37:07.397Z,1.5
2023-05-25T12:38:17.106Z,2
2023-05-25T12:39:26.717Z,1.4
2023-05-25T12:40:34.385Z,1
2023-05-25T12:41:44.088Z,4.3
2023-05-25T12:42:52.799Z,1.6
2023-05-25T12:44:02.461Z,0.6
2023-05-25T12:45:12.168Z,1.2
2023-05-25T12:46:20.852Z,1.9
2023-05-25T12:47:28.590Z,1.8
2023-05-25T12:48:38.189Z,4.7
2023-05-25T12:49:47.836Z,1
2023-05-25T12:50:56.518Z,1.5
2023-05-25T12:52:05.180Z,5.3
2023-05-25T12:53:12.851Z,3.3
2023-05-25T12:54:22.537Z,2.3
2023-05-25T12:55:32.240Z,6.8
2023-05-25T12:56:39.921Z,3.5
2023-05-25T12:57:49.581Z,1.9
2023-05-25T12:58:59.239Z,5
2023-05-25T13:00:08.929Z,3.5
2023-05-25T13:01:18.660Z,2
2023-05-25T13:02:27.317Z,1.9
2023-05-25T13:03:36.979Z,3
2023-05-25T13:04:45.635Z,6.1
2023-05-25T13:05:53.398Z,4.3
2023-05-25T13:07:02.983Z,5.2
2023-05-25T13:08:12.661Z,3.6
2023-05-25T13:09:22.432Z,3.6
2023-05-25T13:10:31.111Z,5
2023-05-25T13:11:39.800Z,1.3
2023-05-25T13:12:49.611Z,8.8
2023-05-25T13:13:58.258Z,3.8
2023-05-25T13:15:07.923Z,7.9
2023-05-25T13:16:16.608Z,6.1
2023-05-25T13:17:25.286Z,6.2
2023-05-25T13:18:33.965Z,6.5
2023-05-25T13:19:42.644Z,2
2023-05-25T13:20:55.293Z,6.6
2023-05-25T13:22:03.005Z,4.9
2023-05-25T13:23:11.839Z,4.9
2023-05-25T13:24:21.559Z,7.1
2023-05-25T13:25:31.230Z,5.9
2023-05-25T13:26:39.920Z,7.1
2023-05-25T13:27:49.568Z,4.1
2023-05-25T13:28:58.323Z,5.1
2023-05-25T13:30:07.988Z,5.6
2023-05-25T13:31:16.678Z,4.6
2023-05-25T13:32:25.311Z,6.6
2023-05-25T13:33:34.981Z,5
2023-05-25T13:34:43.663Z,8
2023-05-25T13:35:52.310Z,2.5
2023-05-25T13:37:01.995Z,1.2
2023-05-25T13:38:10.825Z,2.7
2023-05-25T13:39:20.481Z,6.4
2023-05-25T13:40:29.141Z,4.1
2023-05-25T13:41:37.887Z,7
2023-05-25T13:42:47.649Z,5.9
2023-05-25T13:43:57.232Z,9.5
2023-05-25T13:45:03.897Z,7.2
2023-05-25T13:46:18.642Z,9.9
2023-05-25T13:47:22.346Z,9.7
2023-05-25T13:48:31.968Z,4.9
2023-05-25T13:49:40.625Z,4.8
2023-05-25T13:50:49.302Z,8.1
2023-05-25T13:51:58.950Z,6.1
2023-05-25T13:53:08.659Z,8.4
2023-05-25T13:54:19.326Z,10.7
2023-05-25T13:55:28.962Z,2.5
2023-05-25T13:56:37.630Z,7.3
2023-05-25T13:57:45.290Z,9.4
2023-05-25T13:58:54.091Z,1.7
2023-05-25T14:00:01.736Z,9.3
2023-05-25T14:01:11.448Z,8.2
2023-05-25T14:02:21.109Z,5.9
2023-05-25T14:03:29.827Z,9.1
2023-05-25T14:04:39.465Z,9.1
2023-05-25T14:05:48.131Z,2.9
2023-05-25T14:06:56.787Z,7.9
2023-05-25T14:08:06.450Z,8.4
2023-05-25T14:09:15.117Z,4.4
2023-05-25T14:10:24.880Z,8.4
2023-05-25T14:11:34.508Z,9.8
2023-05-25T14:12:42.167Z,3.1
2023-05-25T14:13:50.838Z,14.4
2023-05-25T14:14:59.566Z,10.7
2023-05-25T14:16:09.272Z,6.9
2023-05-25T14:17:17.896Z,7.2
2023-05-25T14:18:26.574Z,10.1
2023-05-25T14:19:36.242Z,7.8
2023-05-25T14:20:44.993Z,7.7
2023-05-25T14:23:05.290Z,9.8
2023-05-25T14:24:13.946Z,7.1
2023-05-25T14:25:23.631Z,12.2
2023-05-25T14:26:32.337Z,11.2
2023-05-25T14:27:41.007Z,6.2
2023-05-25T14:28:50.657Z,9.8
2023-05-25T14:29:59.326Z,10.7
2023-05-25T14:31:07.114Z,11.4
2023-05-25T14:32:16.754Z,8.4
2023-05-25T14:33:26.410Z,11.9
2023-05-25T14:34:35.092Z,14.9
2023-05-25T14:35:44.076Z,4.2
2023-05-25T14:36:52.464Z,7.2
2023-05-25T14:38:02.154Z,10.8
2023-05-25T14:39:13.392Z,8.6
2023-05-25T14:40:19.437Z,6.6
2023-05-25T14:41:29.139Z,11.6
2023-05-25T14:42:37.856Z,13.4
2023-05-25T14:43:46.522Z,13.5
2023-05-25T14:44:56.223Z,8.2
2023-05-25T14:46:03.894Z,10.9
2023-05-25T14:47:13.675Z,11.1
2023-05-25T14:48:22.340Z,4
2023-05-25T14:49:29.951Z,5.8
2023-05-25T14:50:39.620Z,12.4
2023-05-25T14:51:48.268Z,10.2
2023-05-25T14:52:58.048Z,7.9
2023-05-25T14:54:06.692Z,11.1
2023-05-25T14:55:15.425Z,13.3
2023-05-25T14:56:25.093Z,10.2
2023-05-25T14:57:33.759Z,6.2
2023-05-25T14:58:43.713Z,11.6
2023-05-25T14:59:53.437Z,7.8
2023-05-25T15:01:02.103Z,15.8
2023-05-25T15:02:10.767Z,10.6
2023-05-25T15:03:19.597Z,11.8
2023-05-25T15:04:28.221Z,7.8
2023-05-25T15:05:37.869Z,16.799999
2023-05-25T15:06:47.500Z,8.1
2023-05-25T15:07:56.163Z,5
2023-05-25T15:09:05.839Z,14.2
2023-05-25T15:10:13.530Z,12.5
2023-05-25T15:11:23.185Z,8.9
2023-05-25T15:12:32.832Z,6.2
2023-05-25T15:13:40.495Z,14.6
2023-05-25T15:14:50.229Z,18.299999
2023-05-25T15:15:59.937Z,14.6
2023-05-25T15:17:08.675Z,6.1
2023-05-25T15:18:18.344Z,11.4
2023-05-25T15:19:26.997Z,16.9
2023-05-25T15:20:36.669Z,4.3
2023-05-25T15:21:46.298Z,5.9
2023-05-25T15:22:55.033Z,8.7
2023-05-25T15:24:04.735Z,11
2023-05-25T15:25:16.920Z,11.6
2023-05-25T15:26:24.078Z,10.3
2023-05-25T15:27:32.746Z,14.1
2023-05-25T15:28:41.463Z,16.6
2023-05-25T15:29:51.131Z,9.1
2023-05-25T15:31:02.486Z,2.5
2023-05-25T15:32:09.527Z,16.5
2023-05-25T15:33:18.114Z,5.4
2023-05-25T15:34:26.795Z,15.1
2023-05-25T15:35:36.542Z,14.5
2023-05-25T15:36:46.228Z,3.3
2023-05-25T15:37:55.927Z,12.2
2023-05-25T15:39:05.594Z,6.1
2023-05-25T15:40:15.296Z,12.5
2023-05-25T15:41:24.955Z,7.8
2023-05-25T15:42:34.643Z,13.6
2023-05-25T15:43:42.292Z,12.3
2023-05-25T15:44:51.947Z,6.5
2023-05-25T15:46:00.641Z,8
2023-05-25T15:47:09.290Z,10.6
2023-05-25T15:48:19.183Z,9.1
2023-05-25T15:49:27.832Z,4.6
2023-05-25T15:50:36.500Z,10
2023-05-25T15:51:46.240Z,9.1
2023-05-25T15:52:54.885Z,8
2023-05-25T15:54:04.595Z,14.6
2023-05-25T15:55:13.221Z,14.1
2023-05-25T15:56:20.913Z,13.6